sensor_id;sensor_type;location;lat;lon;timestamp;temperature;humidity
17495;DHT22;8864;51.970;4.614;2024-02-21T00:01:36;16.60;90.50
17495;DHT22;8864;51.970;4.614;2024-02-21T00:04:03;16.60;90.50
17495;DHT22;8864;51.970;4.614;2024-02-21T00:06:31;16.60;90.50
17495;DHT22;8864;51.970;4.614;2024-02-21T00:08:58;16.60;90.50
17495;DHT22;8864;51.970;4.614;2024-02-21T00:11:26;16.60;90.40
17495;DHT22;8864;51.970;4.614;2024-02-21T00:13:53;16.60;90.40
17495;DHT22;8864;51.970;4.614;2024-02-21T00:16:20;16.60;90.40
17495;DHT22;8864;51.970;4.614;2024-02-21T00:18:47;16.60;90.40
17495;DHT22;8864;51.970;4.614;2024-02-21T00:21:15;16.60;90.40
17495;DHT22;8864;51.970;4.614;2024-02-21T00:23:43;16.60;90.40
17495;DHT22;8864;51.970;4.614;2024-02-21T00:26:11;16.60;90.40
17495;DHT22;8864;51.970;4.614;2024-02-21T00:28:40;16.60;90.40
17495;DHT22;8864;51.970;4.614;2024-02-21T00:31:07;16.60;90.40
17495;DHT22;8864;51.970;4.614;2024-02-21T00:33:34;16.60;90.40
17495;DHT22;8864;51.970;4.614;2024-02-21T00:36:01;16.60;90.40
17495;DHT22;8864;51.970;4.614;2024-02-21T00:38:28;16.60;90.40
17495;DHT22;8864;51.970;4.614;2024-02-21T00:40:55;16.60;90.60
17495;DHT22;8864;51.970;4.614;2024-02-21T00:43:22;16.60;90.60
17495;DHT22;8864;51.970;4.614;2024-02-21T00:45:51;16.60;90.60
17495;DHT22;8864;51.970;4.614;2024-02-21T00:48:18;16.60;90.50
17495;DHT22;8864;51.970;4.614;2024-02-21T00:50:45;16.60;90.50
17495;DHT22;8864;51.970;4.614;2024-02-21T00:53:12;16.60;90.60
17495;DHT22;8864;51.970;4.614;2024-02-21T00:55:39;16.60;90.50
17495;DHT22;8864;51.970;4.614;2024-02-21T00:58:06;16.60;90.50
17495;DHT22;8864;51.970;4.614;2024-02-21T01:00:33;16.60;90.40
17495;DHT22;8864;51.970;4.614;2024-02-21T01:03:02;16.60;90.40
17495;DHT22;8864;51.970;4.614;2024-02-21T01:05:28;16.60;90.40
17495;DHT22;8864;51.970;4.614;2024-02-21T01:07:56;16.60;90.30
17495;DHT22;8864;51.970;4.614;2024-02-21T01:10:23;16.60;90.30
17495;DHT22;8864;51.970;4.614;2024-02-21T01:12:50;16.60;90.30
17495;DHT22;8864;51.970;4.614;2024-02-21T01:15:17;16.60;90.30
17495;DHT22;8864;51.970;4.614;2024-02-21T01:17:44;16.60;90.30
17495;DHT22;8864;51.970;4.614;2024-02-21T01:20:12;16.50;90.20
17495;DHT22;8864;51.970;4.614;2024-02-21T01:22:40;16.60;90.30
17495;DHT22;8864;51.970;4.614;2024-02-21T01:25:08;16.60;90.30
17495;DHT22;8864;51.970;4.614;2024-02-21T01:27:35;16.50;90.20
17495;DHT22;8864;51.970;4.614;2024-02-21T01:30:02;16.50;90.20
17495;DHT22;8864;51.970;4.614;2024-02-21T01:32:29;16.50;90.20
17495;DHT22;8864;51.970;4.614;2024-02-21T01:34:56;16.50;90.20
17495;DHT22;8864;51.970;4.614;2024-02-21T01:37:24;16.50;90.20
17495;DHT22;8864;51.970;4.614;2024-02-21T01:39:51;16.50;90.20
17495;DHT22;8864;51.970;4.614;2024-02-21T01:42:18;16.50;90.20
17495;DHT22;8864;51.970;4.614;2024-02-21T01:44:45;16.50;90.10
17495;DHT22;8864;51.970;4.614;2024-02-21T01:47:12;16.50;90.10
17495;DHT22;8864;51.970;4.614;2024-02-21T01:49:40;16.50;90.10
17495;DHT22;8864;51.970;4.614;2024-02-21T01:52:08;16.50;90.10
17495;DHT22;8864;51.970;4.614;2024-02-21T01:54:37;16.50;90.10
17495;DHT22;8864;51.970;4.614;2024-02-21T01:57:04;16.50;90.10
17495;DHT22;8864;51.970;4.614;2024-02-21T01:59:31;16.50;90.10
17495;DHT22;8864;51.970;4.614;2024-02-21T02:01:58;16.50;90.10
17495;DHT22;8864;51.970;4.614;2024-02-21T02:04:26;16.50;90.10
17495;DHT22;8864;51.970;4.614;2024-02-21T02:06:54;16.50;90.10
17495;DHT22;8864;51.970;4.614;2024-02-21T02:09:21;16.50;90.10
17495;DHT22;8864;51.970;4.614;2024-02-21T02:11:50;16.50;90.00
17495;DHT22;8864;51.970;4.614;2024-02-21T02:14:17;16.50;90.00
17495;DHT22;8864;51.970;4.614;2024-02-21T02:16:46;16.50;90.00
17495;DHT22;8864;51.970;4.614;2024-02-21T02:19:14;16.50;90.00
17495;DHT22;8864;51.970;4.614;2024-02-21T02:21:45;16.50;90.00
17495;DHT22;8864;51.970;4.614;2024-02-21T02:24:14;16.50;90.00
17495;DHT22;8864;51.970;4.614;2024-02-21T02:26:42;16.50;90.00
17495;DHT22;8864;51.970;4.614;2024-02-21T02:29:08;16.50;90.00
17495;DHT22;8864;51.970;4.614;2024-02-21T02:31:35;16.50;90.00
17495;DHT22;8864;51.970;4.614;2024-02-21T02:34:03;16.50;90.00
17495;DHT22;8864;51.970;4.614;2024-02-21T02:36:32;16.50;90.00
17495;DHT22;8864;51.970;4.614;2024-02-21T02:38:59;16.50;90.00
17495;DHT22;8864;51.970;4.614;2024-02-21T02:41:27;16.60;90.10
17495;DHT22;8864;51.970;4.614;2024-02-21T02:43:55;16.50;90.00
17495;DHT22;8864;51.970;4.614;2024-02-21T02:46:22;16.50;90.00
17495;DHT22;8864;51.970;4.614;2024-02-21T02:48:49;16.50;90.00
17495;DHT22;8864;51.970;4.614;2024-02-21T02:51:16;16.50;90.00
17495;DHT22;8864;51.970;4.614;2024-02-21T02:53:43;16.50;90.00
17495;DHT22;8864;51.970;4.614;2024-02-21T02:56:14;16.50;90.00
17495;DHT22;8864;51.970;4.614;2024-02-21T02:58:42;16.50;90.00
17495;DHT22;8864;51.970;4.614;2024-02-21T03:01:10;16.50;90.00
17495;DHT22;8864;51.970;4.614;2024-02-21T03:03:37;16.50;90.00
17495;DHT22;8864;51.970;4.614;2024-02-21T03:06:04;16.50;90.00
17495;DHT22;8864;51.970;4.614;2024-02-21T03:08:31;16.50;90.00
17495;DHT22;8864;51.970;4.614;2024-02-21T03:10:58;16.50;90.00
17495;DHT22;8864;51.970;4.614;2024-02-21T03:13:26;16.50;90.00
17495;DHT22;8864;51.970;4.614;2024-02-21T03:15:54;16.50;90.00
17495;DHT22;8864;51.970;4.614;2024-02-21T03:18:21;16.50;90.00
17495;DHT22;8864;51.970;4.614;2024-02-21T03:20:48;16.50;90.00
17495;DHT22;8864;51.970;4.614;2024-02-21T03:23:15;16.50;90.00
17495;DHT22;8864;51.970;4.614;2024-02-21T03:25:42;16.50;90.00
17495;DHT22;8864;51.970;4.614;2024-02-21T03:28:11;16.50;90.30
17495;DHT22;8864;51.970;4.614;2024-02-21T03:30:38;16.50;90.00
17495;DHT22;8864;51.970;4.614;2024-02-21T03:33:06;16.50;90.00
17495;DHT22;8864;51.970;4.614;2024-02-21T03:35:33;16.50;90.00
17495;DHT22;8864;51.970;4.614;2024-02-21T03:38:00;16.50;90.00
17495;DHT22;8864;51.970;4.614;2024-02-21T03:40:27;16.50;90.00
17495;DHT22;8864;51.970;4.614;2024-02-21T03:42:54;16.50;90.00
17495;DHT22;8864;51.970;4.614;2024-02-21T03:45:21;16.50;90.00
17495;DHT22;8864;51.970;4.614;2024-02-21T03:47:47;16.50;90.00
17495;DHT22;8864;51.970;4.614;2024-02-21T03:50:16;16.50;90.00
17495;DHT22;8864;51.970;4.614;2024-02-21T03:52:43;16.50;90.00
17495;DHT22;8864;51.970;4.614;2024-02-21T03:55:10;16.50;90.30
17495;DHT22;8864;51.970;4.614;2024-02-21T03:57:37;16.50;90.00
17495;DHT22;8864;51.970;4.614;2024-02-21T04:00:05;16.50;90.00
17495;DHT22;8864;51.970;4.614;2024-02-21T04:02:36;16.50;90.00
17495;DHT22;8864;51.970;4.614;2024-02-21T04:05:03;16.50;90.00
17495;DHT22;8864;51.970;4.614;2024-02-21T04:07:32;16.50;90.30
17495;DHT22;8864;51.970;4.614;2024-02-21T04:09:58;16.50;90.00
17495;DHT22;8864;51.970;4.614;2024-02-21T04:12:26;16.50;90.00
17495;DHT22;8864;51.970;4.614;2024-02-21T04:14:53;16.50;90.00
17495;DHT22;8864;51.970;4.614;2024-02-21T04:17:20;16.50;90.00
17495;DHT22;8864;51.970;4.614;2024-02-21T04:19:46;16.50;90.00
17495;DHT22;8864;51.970;4.614;2024-02-21T04:22:13;16.50;90.00
17495;DHT22;8864;51.970;4.614;2024-02-21T04:24:42;16.50;90.00
17495;DHT22;8864;51.970;4.614;2024-02-21T04:27:09;16.50;90.00
17495;DHT22;8864;51.970;4.614;2024-02-21T04:29:36;16.50;89.90
17495;DHT22;8864;51.970;4.614;2024-02-21T04:32:03;16.50;90.00
17495;DHT22;8864;51.970;4.614;2024-02-21T04:34:30;16.50;90.10
17495;DHT22;8864;51.970;4.614;2024-02-21T04:36:57;16.50;90.00
17495;DHT22;8864;51.970;4.614;2024-02-21T04:39:24;16.50;90.10
17495;DHT22;8864;51.970;4.614;2024-02-21T04:41:53;16.50;90.10
17495;DHT22;8864;51.970;4.614;2024-02-21T04:44:20;16.50;90.10
17495;DHT22;8864;51.970;4.614;2024-02-21T04:46:48;16.50;90.00
17495;DHT22;8864;51.970;4.614;2024-02-21T04:49:15;16.50;90.00
17495;DHT22;8864;51.970;4.614;2024-02-21T04:51:42;16.50;90.00
17495;DHT22;8864;51.970;4.614;2024-02-21T04:54:09;16.50;90.00
17495;DHT22;8864;51.970;4.614;2024-02-21T04:56:36;16.50;90.00
17495;DHT22;8864;51.970;4.614;2024-02-21T04:59:04;16.50;90.00
17495;DHT22;8864;51.970;4.614;2024-02-21T05:01:31;16.50;90.00
17495;DHT22;8864;51.970;4.614;2024-02-21T05:03:58;16.50;90.00
17495;DHT22;8864;51.970;4.614;2024-02-21T05:06:25;16.50;90.00
17495;DHT22;8864;51.970;4.614;2024-02-21T05:08:52;16.50;90.00
17495;DHT22;8864;51.970;4.614;2024-02-21T05:11:20;16.50;90.00
17495;DHT22;8864;51.970;4.614;2024-02-21T05:13:47;16.50;90.00
17495;DHT22;8864;51.970;4.614;2024-02-21T05:16:16;16.50;90.00
17495;DHT22;8864;51.970;4.614;2024-02-21T05:18:45;16.50;90.00
17495;DHT22;8864;51.970;4.614;2024-02-21T05:21:12;16.50;89.90
17495;DHT22;8864;51.970;4.614;2024-02-21T05:23:39;16.50;90.20
17495;DHT22;8864;51.970;4.614;2024-02-21T05:26:07;16.50;89.90
17495;DHT22;8864;51.970;4.614;2024-02-21T05:28:34;16.50;89.80
17495;DHT22;8864;51.970;4.614;2024-02-21T05:31:00;16.50;89.80
17495;DHT22;8864;51.970;4.614;2024-02-21T05:33:29;16.50;89.80
17495;DHT22;8864;51.970;4.614;2024-02-21T05:35:56;16.50;89.70
17495;DHT22;8864;51.970;4.614;2024-02-21T05:38:23;16.50;89.70
17495;DHT22;8864;51.970;4.614;2024-02-21T05:40:50;16.50;89.70
17495;DHT22;8864;51.970;4.614;2024-02-21T05:43:17;16.50;89.70
17495;DHT22;8864;51.970;4.614;2024-02-21T05:45:43;16.50;89.70
17495;DHT22;8864;51.970;4.614;2024-02-21T05:48:10;16.50;89.70
17495;DHT22;8864;51.970;4.614;2024-02-21T05:50:39;16.50;89.70
17495;DHT22;8864;51.970;4.614;2024-02-21T05:53:06;16.50;89.60
17495;DHT22;8864;51.970;4.614;2024-02-21T05:55:33;16.50;89.60
17495;DHT22;8864;51.970;4.614;2024-02-21T05:58:00;16.50;89.60
17495;DHT22;8864;51.970;4.614;2024-02-21T06:00:27;16.50;89.60
17495;DHT22;8864;51.970;4.614;2024-02-21T06:02:55;16.50;89.60
17495;DHT22;8864;51.970;4.614;2024-02-21T06:05:22;16.50;89.50
17495;DHT22;8864;51.970;4.614;2024-02-21T06:07:50;16.50;89.50
17495;DHT22;8864;51.970;4.614;2024-02-21T06:10:17;16.50;89.50
17495;DHT22;8864;51.970;4.614;2024-02-21T06:12:44;16.50;89.50
17495;DHT22;8864;51.970;4.614;2024-02-21T06:15:11;16.50;89.50
17495;DHT22;8864;51.970;4.614;2024-02-21T06:17:38;16.50;89.50
17495;DHT22;8864;51.970;4.614;2024-02-21T06:20:06;16.50;89.50
17495;DHT22;8864;51.970;4.614;2024-02-21T06:22:33;16.50;89.60
17495;DHT22;8864;51.970;4.614;2024-02-21T06:25:01;16.50;89.70
17495;DHT22;8864;51.970;4.614;2024-02-21T06:27:28;16.50;89.80
17495;DHT22;8864;51.970;4.614;2024-02-21T06:29:55;16.50;90.00
17495;DHT22;8864;51.970;4.614;2024-02-21T06:32:23;16.50;90.10
17495;DHT22;8864;51.970;4.614;2024-02-21T06:34:50;16.50;90.10
17495;DHT22;8864;51.970;4.614;2024-02-21T06:37:17;16.50;90.20
17495;DHT22;8864;51.970;4.614;2024-02-21T06:39:44;16.60;90.20
17495;DHT22;8864;51.970;4.614;2024-02-21T06:42:12;16.60;90.20
17495;DHT22;8864;51.970;4.614;2024-02-21T06:44:39;16.50;90.10
17495;DHT22;8864;51.970;4.614;2024-02-21T06:47:06;16.60;90.00
17495;DHT22;8864;51.970;4.614;2024-02-21T06:49:34;16.60;90.00
17495;DHT22;8864;51.970;4.614;2024-02-21T06:52:03;16.60;90.00
17495;DHT22;8864;51.970;4.614;2024-02-21T06:54:30;16.60;90.00
17495;DHT22;8864;51.970;4.614;2024-02-21T06:56:57;16.60;89.90
17495;DHT22;8864;51.970;4.614;2024-02-21T06:59:25;16.60;89.80
17495;DHT22;8864;51.970;4.614;2024-02-21T07:01:54;16.50;89.70
17495;DHT22;8864;51.970;4.614;2024-02-21T07:04:21;16.60;89.60
17495;DHT22;8864;51.970;4.614;2024-02-21T07:06:48;16.50;89.50
17495;DHT22;8864;51.970;4.614;2024-02-21T07:09:15;16.50;89.60
17495;DHT22;8864;51.970;4.614;2024-02-21T07:11:42;16.50;89.40
17495;DHT22;8864;51.970;4.614;2024-02-21T07:14:10;16.60;89.40
17495;DHT22;8864;51.970;4.614;2024-02-21T07:16:38;16.50;89.40
17495;DHT22;8864;51.970;4.614;2024-02-21T07:19:05;16.50;89.30
17495;DHT22;8864;51.970;4.614;2024-02-21T07:21:32;16.60;89.30
17495;DHT22;8864;51.970;4.614;2024-02-21T07:24:00;16.60;89.20
17495;DHT22;8864;51.970;4.614;2024-02-21T07:26:26;16.60;89.20
17495;DHT22;8864;51.970;4.614;2024-02-21T07:28:53;16.60;89.10
17495;DHT22;8864;51.970;4.614;2024-02-21T07:31:20;16.60;89.10
17495;DHT22;8864;51.970;4.614;2024-02-21T07:33:48;16.60;89.00
17495;DHT22;8864;51.970;4.614;2024-02-21T07:36:28;16.60;89.00
17495;DHT22;8864;51.970;4.614;2024-02-21T07:38:56;16.60;88.90
17495;DHT22;8864;51.970;4.614;2024-02-21T07:41:23;16.60;88.80
17495;DHT22;8864;51.970;4.614;2024-02-21T07:43:50;16.60;88.80
17495;DHT22;8864;51.970;4.614;2024-02-21T07:46:17;16.50;88.60
17495;DHT22;8864;51.970;4.614;2024-02-21T07:48:45;16.60;89.40
17495;DHT22;8864;51.970;4.614;2024-02-21T07:51:13;16.60;88.60
17495;DHT22;8864;51.970;4.614;2024-02-21T07:53:42;16.60;88.70
17495;DHT22;8864;51.970;4.614;2024-02-21T07:56:10;16.60;88.60
17495;DHT22;8864;51.970;4.614;2024-02-21T07:58:37;16.60;88.60
17495;DHT22;8864;51.970;4.614;2024-02-21T08:01:04;16.60;88.50
17495;DHT22;8864;51.970;4.614;2024-02-21T08:03:31;16.60;88.40
17495;DHT22;8864;51.970;4.614;2024-02-21T08:05:57;16.60;88.40
17495;DHT22;8864;51.970;4.614;2024-02-21T08:08:26;16.60;88.40
17495;DHT22;8864;51.970;4.614;2024-02-21T08:10:53;16.60;88.40
17495;DHT22;8864;51.970;4.614;2024-02-21T08:13:20;16.60;88.30
17495;DHT22;8864;51.970;4.614;2024-02-21T08:15:47;16.60;88.20
17495;DHT22;8864;51.970;4.614;2024-02-21T08:18:14;16.60;88.20
17495;DHT22;8864;51.970;4.614;2024-02-21T08:20:41;16.60;88.00
17495;DHT22;8864;51.970;4.614;2024-02-21T08:23:08;16.60;88.30
17495;DHT22;8864;51.970;4.614;2024-02-21T08:25:36;16.60;89.10
17495;DHT22;8864;51.970;4.614;2024-02-21T08:28:04;16.60;89.00
17495;DHT22;8864;51.970;4.614;2024-02-21T08:30:31;16.60;90.00
17495;DHT22;8864;51.970;4.614;2024-02-21T08:32:58;16.60;90.00
17495;DHT22;8864;51.970;4.614;2024-02-21T08:35:25;16.70;90.00
17495;DHT22;8864;51.970;4.614;2024-02-21T08:37:52;16.70;90.10
17495;DHT22;8864;51.970;4.614;2024-02-21T08:40:19;16.70;90.10
17495;DHT22;8864;51.970;4.614;2024-02-21T08:42:48;16.70;90.20
17495;DHT22;8864;51.970;4.614;2024-02-21T08:45:16;16.70;90.20
17495;DHT22;8864;51.970;4.614;2024-02-21T08:47:43;16.70;90.10
17495;DHT22;8864;51.970;4.614;2024-02-21T08:50:11;16.70;90.00
17495;DHT22;8864;51.970;4.614;2024-02-21T08:52:38;16.70;90.00
17495;DHT22;8864;51.970;4.614;2024-02-21T08:55:06;16.70;89.90
17495;DHT22;8864;51.970;4.614;2024-02-21T08:57:33;16.70;89.60
17495;DHT22;8864;51.970;4.614;2024-02-21T09:00:04;16.70;89.40
17495;DHT22;8864;51.970;4.614;2024-02-21T09:02:36;16.70;89.60
17495;DHT22;8864;51.970;4.614;2024-02-21T09:05:04;16.70;89.40
17495;DHT22;8864;51.970;4.614;2024-02-21T09:07:31;16.70;89.30
17495;DHT22;8864;51.970;4.614;2024-02-21T09:09:58;16.70;89.30
17495;DHT22;8864;51.970;4.614;2024-02-21T09:12:26;16.70;89.20
17495;DHT22;8864;51.970;4.614;2024-02-21T09:14:53;16.70;89.30
17495;DHT22;8864;51.970;4.614;2024-02-21T09:17:21;16.70;89.30
17495;DHT22;8864;51.970;4.614;2024-02-21T09:19:50;16.80;89.30
17495;DHT22;8864;51.970;4.614;2024-02-21T09:22:17;16.70;89.20
17495;DHT22;8864;51.970;4.614;2024-02-21T09:24:44;16.70;89.20
17495;DHT22;8864;51.970;4.614;2024-02-21T09:27:13;16.80;89.30
17495;DHT22;8864;51.970;4.614;2024-02-21T09:29:40;16.80;89.20
17495;DHT22;8864;51.970;4.614;2024-02-21T09:32:06;16.80;89.20
17495;DHT22;8864;51.970;4.614;2024-02-21T09:34:35;16.80;89.20
17495;DHT22;8864;51.970;4.614;2024-02-21T09:37:02;16.80;89.20
17495;DHT22;8864;51.970;4.614;2024-02-21T09:39:29;16.80;89.10
17495;DHT22;8864;51.970;4.614;2024-02-21T09:41:59;16.80;89.20
17495;DHT22;8864;51.970;4.614;2024-02-21T09:44:33;16.80;89.10
17495;DHT22;8864;51.970;4.614;2024-02-21T09:47:04;16.90;89.20
17495;DHT22;8864;51.970;4.614;2024-02-21T09:49:35;16.90;89.10
17495;DHT22;8864;51.970;4.614;2024-02-21T09:52:05;16.90;89.10
17495;DHT22;8864;51.970;4.614;2024-02-21T09:54:33;16.90;89.10
17495;DHT22;8864;51.970;4.614;2024-02-21T09:57:00;16.90;89.00
17495;DHT22;8864;51.970;4.614;2024-02-21T09:59:28;16.90;89.00
17495;DHT22;8864;51.970;4.614;2024-02-21T10:01:56;16.90;88.90
17495;DHT22;8864;51.970;4.614;2024-02-21T10:04:25;17.00;89.00
17495;DHT22;8864;51.970;4.614;2024-02-21T10:06:54;17.00;89.00
17495;DHT22;8864;51.970;4.614;2024-02-21T10:09:22;17.00;89.00
17495;DHT22;8864;51.970;4.614;2024-02-21T10:11:50;17.00;88.80
17495;DHT22;8864;51.970;4.614;2024-02-21T10:14:17;17.00;88.90
17495;DHT22;8864;51.970;4.614;2024-02-21T10:16:45;17.00;88.80
17495;DHT22;8864;51.970;4.614;2024-02-21T10:19:18;17.00;88.80
17495;DHT22;8864;51.970;4.614;2024-02-21T10:22:01;17.00;88.80
17495;DHT22;8864;51.970;4.614;2024-02-21T10:24:29;17.00;88.90
17495;DHT22;8864;51.970;4.614;2024-02-21T10:27:01;17.00;88.90
17495;DHT22;8864;51.970;4.614;2024-02-21T10:29:29;17.00;89.00
17495;DHT22;8864;51.970;4.614;2024-02-21T10:32:04;17.00;88.90
17495;DHT22;8864;51.970;4.614;2024-02-21T10:34:32;17.00;88.90
17495;DHT22;8864;51.970;4.614;2024-02-21T10:37:04;17.00;89.00
17495;DHT22;8864;51.970;4.614;2024-02-21T10:39:32;17.00;89.00
17495;DHT22;8864;51.970;4.614;2024-02-21T10:42:00;17.10;89.00
17495;DHT22;8864;51.970;4.614;2024-02-21T10:44:30;17.10;89.00
17495;DHT22;8864;51.970;4.614;2024-02-21T10:46:57;17.10;89.00
17495;DHT22;8864;51.970;4.614;2024-02-21T10:49:25;17.00;89.00
17495;DHT22;8864;51.970;4.614;2024-02-21T10:51:58;17.00;89.00
17495;DHT22;8864;51.970;4.614;2024-02-21T10:54:42;17.10;89.10
17495;DHT22;8864;51.970;4.614;2024-02-21T10:57:12;17.00;89.00
17495;DHT22;8864;51.970;4.614;2024-02-21T10:59:40;17.10;89.10
17495;DHT22;8864;51.970;4.614;2024-02-21T11:02:07;17.10;89.10
17495;DHT22;8864;51.970;4.614;2024-02-21T11:04:35;17.10;89.10
17495;DHT22;8864;51.970;4.614;2024-02-21T11:07:03;17.10;89.90
17495;DHT22;8864;51.970;4.614;2024-02-21T11:09:32;17.10;89.10
17495;DHT22;8864;51.970;4.614;2024-02-21T11:12:02;17.10;89.00
17495;DHT22;8864;51.970;4.614;2024-02-21T11:14:30;17.10;89.00
17495;DHT22;8864;51.970;4.614;2024-02-21T11:16:58;17.10;89.00
17495;DHT22;8864;51.970;4.614;2024-02-21T11:19:27;17.10;89.00
17495;DHT22;8864;51.970;4.614;2024-02-21T11:21:55;17.20;89.00
17495;DHT22;8864;51.970;4.614;2024-02-21T11:24:27;17.20;88.90
17495;DHT22;8864;51.970;4.614;2024-02-21T11:26:56;17.20;88.90
17495;DHT22;8864;51.970;4.614;2024-02-21T11:29:40;17.20;88.80
17495;DHT22;8864;51.970;4.614;2024-02-21T11:32:10;17.30;88.80
17495;DHT22;8864;51.970;4.614;2024-02-21T11:34:37;17.30;88.70
17495;DHT22;8864;51.970;4.614;2024-02-21T11:37:14;17.30;88.60
17495;DHT22;8864;51.970;4.614;2024-02-21T11:39:42;17.30;88.60
17495;DHT22;8864;51.970;4.614;2024-02-21T11:42:11;17.30;88.50
17495;DHT22;8864;51.970;4.614;2024-02-21T11:44:39;17.30;88.50
17495;DHT22;8864;51.970;4.614;2024-02-21T11:47:08;17.30;88.50
17495;DHT22;8864;51.970;4.614;2024-02-21T11:49:37;17.30;88.50
17495;DHT22;8864;51.970;4.614;2024-02-21T11:52:05;17.40;88.50
17495;DHT22;8864;51.970;4.614;2024-02-21T11:54:33;17.40;88.50
17495;DHT22;8864;51.970;4.614;2024-02-21T11:57:00;17.40;88.40
17495;DHT22;8864;51.970;4.614;2024-02-21T11:59:33;17.40;88.40
17495;DHT22;8864;51.970;4.614;2024-02-21T12:02:00;17.40;88.40
17495;DHT22;8864;51.970;4.614;2024-02-21T12:04:29;17.40;88.40
17495;DHT22;8864;51.970;4.614;2024-02-21T12:06:57;17.40;88.40
17495;DHT22;8864;51.970;4.614;2024-02-21T12:09:25;17.40;88.40
17495;DHT22;8864;51.970;4.614;2024-02-21T12:12:00;17.40;88.50
17495;DHT22;8864;51.970;4.614;2024-02-21T12:14:31;17.40;88.40
17495;DHT22;8864;51.970;4.614;2024-02-21T12:16:58;17.40;88.50
17495;DHT22;8864;51.970;4.614;2024-02-21T12:19:26;17.40;88.50
17495;DHT22;8864;51.970;4.614;2024-02-21T12:21:55;17.40;88.50
17495;DHT22;8864;51.970;4.614;2024-02-21T12:24:24;17.40;88.50
17495;DHT22;8864;51.970;4.614;2024-02-21T12:26:52;17.30;88.50
17495;DHT22;8864;51.970;4.614;2024-02-21T12:29:19;17.30;88.50
17495;DHT22;8864;51.970;4.614;2024-02-21T12:31:47;17.30;88.50
17495;DHT22;8864;51.970;4.614;2024-02-21T12:34:16;17.30;88.50
17495;DHT22;8864;51.970;4.614;2024-02-21T12:36:43;17.30;88.30
17495;DHT22;8864;51.970;4.614;2024-02-21T12:39:12;17.30;88.10
17495;DHT22;8864;51.970;4.614;2024-02-21T12:41:39;17.20;87.90
17495;DHT22;8864;51.970;4.614;2024-02-21T12:44:08;17.20;87.90
17495;DHT22;8864;51.970;4.614;2024-02-21T12:46:36;17.20;87.70
17495;DHT22;8864;51.970;4.614;2024-02-21T12:49:05;17.20;87.60
17495;DHT22;8864;51.970;4.614;2024-02-21T12:51:33;17.20;87.80
17495;DHT22;8864;51.970;4.614;2024-02-21T12:54:00;17.20;87.90
17495;DHT22;8864;51.970;4.614;2024-02-21T12:56:28;17.20;88.20
17495;DHT22;8864;51.970;4.614;2024-02-21T12:58:56;17.20;88.40
17495;DHT22;8864;51.970;4.614;2024-02-21T13:01:23;17.20;88.60
17495;DHT22;8864;51.970;4.614;2024-02-21T13:03:51;17.20;88.80
17495;DHT22;8864;51.970;4.614;2024-02-21T13:06:21;17.20;89.00
17495;DHT22;8864;51.970;4.614;2024-02-21T13:08:48;17.20;89.10
17495;DHT22;8864;51.970;4.614;2024-02-21T13:11:15;17.20;89.30
17495;DHT22;8864;51.970;4.614;2024-02-21T13:13:42;17.20;89.40
17495;DHT22;8864;51.970;4.614;2024-02-21T13:16:10;17.20;89.60
17495;DHT22;8864;51.970;4.614;2024-02-21T13:18:37;17.20;89.70
17495;DHT22;8864;51.970;4.614;2024-02-21T13:21:05;17.20;89.80
17495;DHT22;8864;51.970;4.614;2024-02-21T13:23:33;17.20;89.80
17495;DHT22;8864;51.970;4.614;2024-02-21T13:26:00;17.20;89.90
17495;DHT22;8864;51.970;4.614;2024-02-21T13:28:27;17.20;89.90
17495;DHT22;8864;51.970;4.614;2024-02-21T13:30:54;17.20;89.90
17495;DHT22;8864;51.970;4.614;2024-02-21T13:33:21;17.20;89.90
17495;DHT22;8864;51.970;4.614;2024-02-21T13:35:48;17.20;90.00
17495;DHT22;8864;51.970;4.614;2024-02-21T13:38:15;17.20;90.00
17495;DHT22;8864;51.970;4.614;2024-02-21T13:40:45;17.20;90.00
17495;DHT22;8864;51.970;4.614;2024-02-21T13:43:12;17.20;90.10
17495;DHT22;8864;51.970;4.614;2024-02-21T13:45:39;17.20;90.10
17495;DHT22;8864;51.970;4.614;2024-02-21T13:48:08;17.20;90.20
17495;DHT22;8864;51.970;4.614;2024-02-21T13:50:37;17.20;90.20
17495;DHT22;8864;51.970;4.614;2024-02-21T13:53:08;17.20;90.20
17495;DHT22;8864;51.970;4.614;2024-02-21T13:55:36;17.20;90.20
17495;DHT22;8864;51.970;4.614;2024-02-21T13:58:04;17.20;90.30
17495;DHT22;8864;51.970;4.614;2024-02-21T14:00:31;17.20;90.30
17495;DHT22;8864;51.970;4.614;2024-02-21T14:03:00;17.20;90.30
17495;DHT22;8864;51.970;4.614;2024-02-21T14:05:27;17.20;90.30
17495;DHT22;8864;51.970;4.614;2024-02-21T14:07:54;17.20;90.30
17495;DHT22;8864;51.970;4.614;2024-02-21T14:10:21;17.20;90.30
17495;DHT22;8864;51.970;4.614;2024-02-21T14:12:48;17.20;90.30
17495;DHT22;8864;51.970;4.614;2024-02-21T14:15:16;17.20;90.30
17495;DHT22;8864;51.970;4.614;2024-02-21T14:17:43;17.20;90.30
17495;DHT22;8864;51.970;4.614;2024-02-21T14:20:11;17.20;90.30
17495;DHT22;8864;51.970;4.614;2024-02-21T14:22:40;17.20;90.30
17495;DHT22;8864;51.970;4.614;2024-02-21T14:25:07;17.20;90.30
17495;DHT22;8864;51.970;4.614;2024-02-21T14:27:35;17.20;90.30
17495;DHT22;8864;51.970;4.614;2024-02-21T14:30:03;17.20;90.40
17495;DHT22;8864;51.970;4.614;2024-02-21T14:32:31;17.20;90.40
17495;DHT22;8864;51.970;4.614;2024-02-21T14:34:59;17.20;90.40
17495;DHT22;8864;51.970;4.614;2024-02-21T14:37:26;17.20;90.40
17495;DHT22;8864;51.970;4.614;2024-02-21T14:39:53;17.20;90.40
17495;DHT22;8864;51.970;4.614;2024-02-21T14:42:20;17.20;90.40
17495;DHT22;8864;51.970;4.614;2024-02-21T14:44:47;17.20;90.40
17495;DHT22;8864;51.970;4.614;2024-02-21T14:47:14;17.20;90.40
17495;DHT22;8864;51.970;4.614;2024-02-21T14:49:42;17.20;90.30
17495;DHT22;8864;51.970;4.614;2024-02-21T14:52:09;17.20;90.30
17495;DHT22;8864;51.970;4.614;2024-02-21T14:54:37;17.20;90.30
17495;DHT22;8864;51.970;4.614;2024-02-21T14:57:06;17.20;90.30
17495;DHT22;8864;51.970;4.614;2024-02-21T14:59:33;17.20;90.30
17495;DHT22;8864;51.970;4.614;2024-02-21T15:02:00;17.20;90.30
17495;DHT22;8864;51.970;4.614;2024-02-21T15:04:27;17.20;90.30
17495;DHT22;8864;51.970;4.614;2024-02-21T15:06:55;17.20;90.30
17495;DHT22;8864;51.970;4.614;2024-02-21T15:09:22;17.20;90.30
17495;DHT22;8864;51.970;4.614;2024-02-21T15:11:49;17.20;90.30
17495;DHT22;8864;51.970;4.614;2024-02-21T15:14:16;17.20;90.30
17495;DHT22;8864;51.970;4.614;2024-02-21T15:16:43;17.20;90.30
17495;DHT22;8864;51.970;4.614;2024-02-21T15:19:10;17.20;90.30
17495;DHT22;8864;51.970;4.614;2024-02-21T15:21:37;17.20;90.30
17495;DHT22;8864;51.970;4.614;2024-02-21T15:24:05;17.20;90.30
17495;DHT22;8864;51.970;4.614;2024-02-21T15:26:32;17.20;90.40
17495;DHT22;8864;51.970;4.614;2024-02-21T15:29:00;17.10;90.30
17495;DHT22;8864;51.970;4.614;2024-02-21T15:31:27;17.20;90.40
17495;DHT22;8864;51.970;4.614;2024-02-21T15:33:55;17.20;90.40
17495;DHT22;8864;51.970;4.614;2024-02-21T15:36:22;17.20;90.40
17495;DHT22;8864;51.970;4.614;2024-02-21T15:38:50;17.20;90.40
17495;DHT22;8864;51.970;4.614;2024-02-21T15:41:19;17.20;90.40
17495;DHT22;8864;51.970;4.614;2024-02-21T15:43:47;17.20;90.40
17495;DHT22;8864;51.970;4.614;2024-02-21T15:46:14;17.20;90.40
17495;DHT22;8864;51.970;4.614;2024-02-21T15:48:40;17.20;90.40